sensor_id;sensor_type;location;lat;lon;timestamp;P1;durP1;ratioP1;P2;durP2;ratioP2
71104;SDS011;58760;48.716;8.962;2023-02-28T00:01:10;5.57;;;2.05;;
71104;SDS011;58760;48.716;8.962;2023-02-28T00:03:36;6.60;;;2.25;;
71104;SDS011;58760;48.716;8.962;2023-02-28T00:06:03;4.78;;;1.85;;
71104;SDS011;58760;48.716;8.962;2023-02-28T00:08:30;5.18;;;1.70;;
71104;SDS011;58760;48.716;8.962;2023-02-28T00:10:55;5.38;;;1.90;;
71104;SDS011;58760;48.716;8.962;2023-02-28T00:13:21;5.18;;;1.95;;
71104;SDS011;58760;48.716;8.962;2023-02-28T00:15:46;7.45;;;2.08;;
71104;SDS011;58760;48.716;8.962;2023-02-28T00:18:12;7.80;;;1.92;;
71104;SDS011;58760;48.716;8.962;2023-02-28T00:20:38;6.95;;;2.58;;
71104;SDS011;58760;48.716;8.962;2023-02-28T00:23:04;8.75;;;2.17;;
71104;SDS011;58760;48.716;8.962;2023-02-28T00:25:29;4.75;;;1.80;;
71104;SDS011;58760;48.716;8.962;2023-02-28T00:27:55;5.55;;;1.70;;
71104;SDS011;58760;48.716;8.962;2023-02-28T00:30:21;4.60;;;1.88;;
71104;SDS011;58760;48.716;8.962;2023-02-28T00:32:49;6.22;;;1.80;;
71104;SDS011;58760;48.716;8.962;2023-02-28T00:35:15;6.30;;;1.98;;
71104;SDS011;58760;48.716;8.962;2023-02-28T00:37:41;4.88;;;1.88;;
71104;SDS011;58760;48.716;8.962;2023-02-28T00:40:07;6.07;;;2.00;;
71104;SDS011;58760;48.716;8.962;2023-02-28T00:42:36;7.80;;;2.05;;
71104;SDS011;58760;48.716;8.962;2023-02-28T00:45:02;4.57;;;1.88;;
71104;SDS011;58760;48.716;8.962;2023-02-28T00:47:29;6.45;;;2.00;;
71104;SDS011;58760;48.716;8.962;2023-02-28T00:49:55;6.32;;;1.70;;
71104;SDS011;58760;48.716;8.962;2023-02-28T00:52:20;6.78;;;1.88;;
71104;SDS011;58760;48.716;8.962;2023-02-28T00:54:46;5.93;;;2.50;;
71104;SDS011;58760;48.716;8.962;2023-02-28T00:57:11;6.32;;;2.30;;
71104;SDS011;58760;48.716;8.962;2023-02-28T00:59:37;6.65;;;1.98;;
71104;SDS011;58760;48.716;8.962;2023-02-28T01:02:02;7.68;;;2.45;;
71104;SDS011;58760;48.716;8.962;2023-02-28T01:04:28;4.88;;;1.83;;
71104;SDS011;58760;48.716;8.962;2023-02-28T01:06:53;5.43;;;2.15;;
71104;SDS011;58760;48.716;8.962;2023-02-28T01:09:19;6.63;;;1.83;;
71104;SDS011;58760;48.716;8.962;2023-02-28T01:11:44;5.50;;;1.92;;
71104;SDS011;58760;48.716;8.962;2023-02-28T01:14:13;4.45;;;1.90;;
71104;SDS011;58760;48.716;8.962;2023-02-28T01:16:40;4.80;;;1.90;;
71104;SDS011;58760;48.716;8.962;2023-02-28T01:19:06;5.38;;;1.90;;
71104;SDS011;58760;48.716;8.962;2023-02-28T01:21:31;5.30;;;1.98;;
71104;SDS011;58760;48.716;8.962;2023-02-28T01:23:57;4.53;;;1.95;;
71104;SDS011;58760;48.716;8.962;2023-02-28T01:26:23;6.13;;;1.98;;
71104;SDS011;58760;48.716;8.962;2023-02-28T01:28:48;7.40;;;2.28;;
71104;SDS011;58760;48.716;8.962;2023-02-28T01:31:15;7.13;;;2.38;;
71104;SDS011;58760;48.716;8.962;2023-02-28T01:33:41;5.80;;;2.15;;
71104;SDS011;58760;48.716;8.962;2023-02-28T01:36:09;8.32;;;2.28;;
71104;SDS011;58760;48.716;8.962;2023-02-28T01:38:37;7.40;;;2.22;;
71104;SDS011;58760;48.716;8.962;2023-02-28T01:41:02;5.05;;;2.00;;
71104;SDS011;58760;48.716;8.962;2023-02-28T01:43:52;4.93;;;2.10;;
71104;SDS011;58760;48.716;8.962;2023-02-28T01:46:14;5.30;;;2.20;;
71104;SDS011;58760;48.716;8.962;2023-02-28T01:48:41;6.15;;;2.28;;
71104;SDS011;58760;48.716;8.962;2023-02-28T01:51:12;7.28;;;2.15;;
71104;SDS011;58760;48.716;8.962;2023-02-28T01:53:44;8.43;;;2.75;;
71104;SDS011;58760;48.716;8.962;2023-02-28T01:56:17;6.43;;;2.47;;
71104;SDS011;58760;48.716;8.962;2023-02-28T01:58:48;6.38;;;2.10;;
71104;SDS011;58760;48.716;8.962;2023-02-28T02:01:16;11.02;;;2.97;;
71104;SDS011;58760;48.716;8.962;2023-02-28T02:03:47;6.13;;;2.38;;
71104;SDS011;58760;48.716;8.962;2023-02-28T02:06:20;6.90;;;2.65;;
71104;SDS011;58760;48.716;8.962;2023-02-28T02:08:46;6.50;;;2.40;;
71104;SDS011;58760;48.716;8.962;2023-02-28T02:11:11;7.40;;;2.58;;
71104;SDS011;58760;48.716;8.962;2023-02-28T02:36:37;7.80;;;2.65;;
71104;SDS011;58760;48.716;8.962;2023-02-28T02:39:18;6.90;;;2.63;;
71104;SDS011;58760;48.716;8.962;2023-02-28T02:41:49;8.35;;;2.63;;
71104;SDS011;58760;48.716;8.962;2023-02-28T02:46:55;6.97;;;3.40;;
71104;SDS011;58760;48.716;8.962;2023-02-28T02:49:28;7.22;;;2.92;;
71104;SDS011;58760;48.716;8.962;2023-02-28T02:51:57;7.15;;;2.47;;
71104;SDS011;58760;48.716;8.962;2023-02-28T02:54:29;8.88;;;2.80;;
71104;SDS011;58760;48.716;8.962;2023-02-28T02:56:59;7.90;;;3.13;;
71104;SDS011;58760;48.716;8.962;2023-02-28T02:59:29;8.07;;;3.03;;
71104;SDS011;58760;48.716;8.962;2023-02-28T03:01:56;7.68;;;3.13;;
71104;SDS011;58760;48.716;8.962;2023-02-28T03:04:25;7.78;;;2.90;;
71104;SDS011;58760;48.716;8.962;2023-02-28T03:06:55;8.27;;;3.35;;
71104;SDS011;58760;48.716;8.962;2023-02-28T03:09:24;9.77;;;3.75;;
71104;SDS011;58760;48.716;8.962;2023-02-28T03:11:51;7.70;;;3.20;;
71104;SDS011;58760;48.716;8.962;2023-02-28T03:27:23;5.93;;;2.60;;
71104;SDS011;58760;48.716;8.962;2023-02-28T03:29:58;9.80;;;3.33;;
71104;SDS011;58760;48.716;8.962;2023-02-28T03:32:33;6.38;;;3.00;;
71104;SDS011;58760;48.716;8.962;2023-02-28T03:37:46;6.03;;;2.80;;
71104;SDS011;58760;48.716;8.962;2023-02-28T03:40:19;8.20;;;3.20;;
71104;SDS011;58760;48.716;8.962;2023-02-28T03:42:48;8.00;;;3.25;;
71104;SDS011;58760;48.716;8.962;2023-02-28T03:45:21;6.72;;;3.03;;
71104;SDS011;58760;48.716;8.962;2023-02-28T03:50:40;8.85;;;3.55;;
71104;SDS011;58760;48.716;8.962;2023-02-28T03:53:15;7.45;;;3.20;;
71104;SDS011;58760;48.716;8.962;2023-02-28T03:56:03;7.38;;;3.40;;
71104;SDS011;58760;48.716;8.962;2023-02-28T03:58:38;7.18;;;2.95;;
71104;SDS011;58760;48.716;8.962;2023-02-28T04:01:16;6.55;;;2.67;;
71104;SDS011;58760;48.716;8.962;2023-02-28T04:03:47;8.90;;;3.78;;
71104;SDS011;58760;48.716;8.962;2023-02-28T04:06:16;6.88;;;2.95;;
71104;SDS011;58760;48.716;8.962;2023-02-28T04:08:44;8.15;;;3.35;;
71104;SDS011;58760;48.716;8.962;2023-02-28T04:13:38;8.15;;;3.67;;
71104;SDS011;58760;48.716;8.962;2023-02-28T04:16:06;8.23;;;3.53;;
71104;SDS011;58760;48.716;8.962;2023-02-28T04:18:37;6.85;;;3.03;;
71104;SDS011;58760;48.716;8.962;2023-02-28T04:21:03;9.82;;;3.58;;
71104;SDS011;58760;48.716;8.962;2023-02-28T04:23:30;7.63;;;3.15;;
71104;SDS011;58760;48.716;8.962;2023-02-28T04:25:55;6.93;;;3.55;;
71104;SDS011;58760;48.716;8.962;2023-02-28T04:28:21;11.02;;;4.03;;
71104;SDS011;58760;48.716;8.962;2023-02-28T04:30:46;8.43;;;4.10;;
71104;SDS011;58760;48.716;8.962;2023-02-28T04:33:12;8.60;;;3.67;;
71104;SDS011;58760;48.716;8.962;2023-02-28T04:35:37;9.50;;;4.05;;
71104;SDS011;58760;48.716;8.962;2023-02-28T04:38:02;7.93;;;4.10;;
71104;SDS011;58760;48.716;8.962;2023-02-28T04:40:28;8.88;;;3.92;;
71104;SDS011;58760;48.716;8.962;2023-02-28T04:42:53;8.07;;;3.97;;
71104;SDS011;58760;48.716;8.962;2023-02-28T04:45:19;8.60;;;4.13;;
71104;SDS011;58760;48.716;8.962;2023-02-28T04:47:44;8.40;;;3.83;;
71104;SDS011;58760;48.716;8.962;2023-02-28T04:50:09;10.20;;;4.15;;
71104;SDS011;58760;48.716;8.962;2023-02-28T04:52:35;8.35;;;3.83;;
71104;SDS011;58760;48.716;8.962;2023-02-28T04:55:00;8.30;;;3.78;;
71104;SDS011;58760;48.716;8.962;2023-02-28T04:57:26;8.43;;;3.63;;
71104;SDS011;58760;48.716;8.962;2023-02-28T04:59:52;9.82;;;3.70;;
71104;SDS011;58760;48.716;8.962;2023-02-28T05:02:18;8.40;;;3.72;;
71104;SDS011;58760;48.716;8.962;2023-02-28T05:04:43;7.63;;;3.70;;
71104;SDS011;58760;48.716;8.962;2023-02-28T05:07:08;8.68;;;4.13;;
71104;SDS011;58760;48.716;8.962;2023-02-28T05:09:34;8.55;;;4.22;;
71104;SDS011;58760;48.716;8.962;2023-02-28T05:12:00;12.55;;;4.50;;
71104;SDS011;58760;48.716;8.962;2023-02-28T05:14:25;9.43;;;4.10;;
71104;SDS011;58760;48.716;8.962;2023-02-28T05:16:51;10.52;;;4.05;;
71104;SDS011;58760;48.716;8.962;2023-02-28T05:19:16;9.80;;;4.15;;
71104;SDS011;58760;48.716;8.962;2023-02-28T05:21:49;8.77;;;3.50;;
71104;SDS011;58760;48.716;8.962;2023-02-28T05:24:17;11.90;;;3.92;;
71104;SDS011;58760;48.716;8.962;2023-02-28T05:26:47;10.18;;;4.40;;
71104;SDS011;58760;48.716;8.962;2023-02-28T05:29:14;11.60;;;4.10;;
71104;SDS011;58760;48.716;8.962;2023-02-28T05:31:39;8.40;;;4.22;;
71104;SDS011;58760;48.716;8.962;2023-02-28T05:34:04;10.48;;;4.43;;
71104;SDS011;58760;48.716;8.962;2023-02-28T05:36:30;8.20;;;4.25;;
71104;SDS011;58760;48.716;8.962;2023-02-28T05:38:56;9.25;;;3.90;;
71104;SDS011;58760;48.716;8.962;2023-02-28T05:41:21;8.65;;;4.40;;
71104;SDS011;58760;48.716;8.962;2023-02-28T05:43:47;9.10;;;4.05;;
71104;SDS011;58760;48.716;8.962;2023-02-28T05:46:13;7.80;;;3.97;;
71104;SDS011;58760;48.716;8.962;2023-02-28T05:48:40;9.88;;;4.25;;
71104;SDS011;58760;48.716;8.962;2023-02-28T05:51:06;9.57;;;4.38;;
71104;SDS011;58760;48.716;8.962;2023-02-28T05:53:33;7.78;;;4.20;;
71104;SDS011;58760;48.716;8.962;2023-02-28T05:55:59;9.57;;;4.22;;
71104;SDS011;58760;48.716;8.962;2023-02-28T05:58:25;12.15;;;4.45;;
71104;SDS011;58760;48.716;8.962;2023-02-28T06:00:55;10.20;;;4.30;;
71104;SDS011;58760;48.716;8.962;2023-02-28T06:03:21;10.27;;;4.35;;
71104;SDS011;58760;48.716;8.962;2023-02-28T06:05:46;8.23;;;4.32;;
71104;SDS011;58760;48.716;8.962;2023-02-28T06:08:12;8.30;;;4.07;;
71104;SDS011;58760;48.716;8.962;2023-02-28T06:10:38;9.73;;;4.32;;
71104;SDS011;58760;48.716;8.962;2023-02-28T06:13:03;12.75;;;4.63;;
71104;SDS011;58760;48.716;8.962;2023-02-28T06:15:29;9.05;;;4.18;;
71104;SDS011;58760;48.716;8.962;2023-02-28T06:17:55;10.55;;;5.43;;
71104;SDS011;58760;48.716;8.962;2023-02-28T06:20:22;9.10;;;4.85;;
71104;SDS011;58760;48.716;8.962;2023-02-28T06:22:48;9.70;;;4.50;;
71104;SDS011;58760;48.716;8.962;2023-02-28T06:25:15;10.27;;;4.80;;
71104;SDS011;58760;48.716;8.962;2023-02-28T06:27:40;11.18;;;4.40;;
71104;SDS011;58760;48.716;8.962;2023-02-28T06:30:06;10.25;;;4.57;;
71104;SDS011;58760;48.716;8.962;2023-02-28T06:32:32;10.07;;;4.80;;
71104;SDS011;58760;48.716;8.962;2023-02-28T06:34:57;11.73;;;4.93;;
71104;SDS011;58760;48.716;8.962;2023-02-28T06:37:23;15.25;;;6.57;;
71104;SDS011;58760;48.716;8.962;2023-02-28T06:39:51;12.93;;;5.40;;
71104;SDS011;58760;48.716;8.962;2023-02-28T06:42:16;10.07;;;5.03;;
71104;SDS011;58760;48.716;8.962;2023-02-28T06:44:42;13.02;;;4.90;;
71104;SDS011;58760;48.716;8.962;2023-02-28T06:47:08;9.52;;;4.75;;
71104;SDS011;58760;48.716;8.962;2023-02-28T06:49:34;12.40;;;5.57;;
71104;SDS011;58760;48.716;8.962;2023-02-28T06:52:01;12.63;;;5.82;;
71104;SDS011;58760;48.716;8.962;2023-02-28T06:54:26;13.55;;;6.15;;
71104;SDS011;58760;48.716;8.962;2023-02-28T06:56:52;10.50;;;4.75;;
71104;SDS011;58760;48.716;8.962;2023-02-28T06:59:19;10.98;;;5.50;;
71104;SDS011;58760;48.716;8.962;2023-02-28T07:01:45;9.65;;;4.18;;
71104;SDS011;58760;48.716;8.962;2023-02-28T07:04:11;12.95;;;5.47;;
71104;SDS011;58760;48.716;8.962;2023-02-28T07:06:38;13.25;;;5.03;;
71104;SDS011;58760;48.716;8.962;2023-02-28T07:09:03;10.88;;;5.47;;
71104;SDS011;58760;48.716;8.962;2023-02-28T07:11:29;10.05;;;5.13;;
71104;SDS011;58760;48.716;8.962;2023-02-28T07:13:55;9.45;;;4.95;;
71104;SDS011;58760;48.716;8.962;2023-02-28T07:16:21;12.25;;;5.38;;
71104;SDS011;58760;48.716;8.962;2023-02-28T07:18:52;12.23;;;5.90;;
71104;SDS011;58760;48.716;8.962;2023-02-28T07:21:18;12.13;;;5.80;;
71104;SDS011;58760;48.716;8.962;2023-02-28T07:23:43;9.38;;;4.57;;
71104;SDS011;58760;48.716;8.962;2023-02-28T07:26:11;11.93;;;5.95;;
71104;SDS011;58760;48.716;8.962;2023-02-28T07:28:40;12.05;;;5.78;;
71104;SDS011;58760;48.716;8.962;2023-02-28T07:31:07;12.13;;;5.30;;
71104;SDS011;58760;48.716;8.962;2023-02-28T07:33:33;9.63;;;4.78;;
71104;SDS011;58760;48.716;8.962;2023-02-28T07:36:00;10.63;;;5.28;;
71104;SDS011;58760;48.716;8.962;2023-02-28T07:38:29;9.38;;;5.10;;
71104;SDS011;58760;48.716;8.962;2023-02-28T07:40:55;10.60;;;4.88;;
71104;SDS011;58760;48.716;8.962;2023-02-28T07:43:20;9.70;;;4.75;;
71104;SDS011;58760;48.716;8.962;2023-02-28T07:45:45;12.68;;;5.22;;
71104;SDS011;58760;48.716;8.962;2023-02-28T07:48:11;10.13;;;5.35;;
71104;SDS011;58760;48.716;8.962;2023-02-28T07:50:36;10.23;;;4.90;;
71104;SDS011;58760;48.716;8.962;2023-02-28T07:53:02;10.80;;;5.10;;
71104;SDS011;58760;48.716;8.962;2023-02-28T07:55:27;10.68;;;5.68;;
71104;SDS011;58760;48.716;8.962;2023-02-28T07:57:52;9.13;;;4.53;;
71104;SDS011;58760;48.716;8.962;2023-02-28T08:00:18;12.52;;;5.57;;
71104;SDS011;58760;48.716;8.962;2023-02-28T08:02:44;11.45;;;4.90;;
71104;SDS011;58760;48.716;8.962;2023-02-28T08:05:09;11.95;;;5.90;;
71104;SDS011;58760;48.716;8.962;2023-02-28T08:07:35;9.98;;;5.50;;
71104;SDS011;58760;48.716;8.962;2023-02-28T08:10:00;12.70;;;6.32;;
71104;SDS011;58760;48.716;8.962;2023-02-28T08:12:26;12.93;;;6.00;;
71104;SDS011;58760;48.716;8.962;2023-02-28T08:14:51;14.18;;;5.75;;
71104;SDS011;58760;48.716;8.962;2023-02-28T08:17:17;10.80;;;5.45;;
71104;SDS011;58760;48.716;8.962;2023-02-28T08:19:45;12.48;;;5.65;;
71104;SDS011;58760;48.716;8.962;2023-02-28T08:22:11;13.30;;;6.22;;
71104;SDS011;58760;48.716;8.962;2023-02-28T08:24:36;13.60;;;5.10;;
71104;SDS011;58760;48.716;8.962;2023-02-28T08:27:01;12.65;;;5.68;;
71104;SDS011;58760;48.716;8.962;2023-02-28T08:29:27;11.02;;;5.13;;
71104;SDS011;58760;48.716;8.962;2023-02-28T08:31:52;11.15;;;5.70;;
71104;SDS011;58760;48.716;8.962;2023-02-28T08:34:17;12.18;;;5.70;;
71104;SDS011;58760;48.716;8.962;2023-02-28T08:36:43;12.65;;;5.82;;
71104;SDS011;58760;48.716;8.962;2023-02-28T08:39:10;11.43;;;5.82;;
71104;SDS011;58760;48.716;8.962;2023-02-28T08:41:35;12.90;;;6.03;;
71104;SDS011;58760;48.716;8.962;2023-02-28T08:44:01;13.85;;;6.13;;
71104;SDS011;58760;48.716;8.962;2023-02-28T08:46:27;11.35;;;5.93;;
71104;SDS011;58760;48.716;8.962;2023-02-28T08:48:53;13.73;;;6.15;;
71104;SDS011;58760;48.716;8.962;2023-02-28T08:51:20;11.10;;;5.38;;
71104;SDS011;58760;48.716;8.962;2023-02-28T08:53:55;12.30;;;5.82;;
71104;SDS011;58760;48.716;8.962;2023-02-28T08:56:22;12.68;;;5.78;;
71104;SDS011;58760;48.716;8.962;2023-02-28T08:58:48;11.43;;;5.68;;
71104;SDS011;58760;48.716;8.962;2023-02-28T09:01:15;12.63;;;6.22;;
71104;SDS011;58760;48.716;8.962;2023-02-28T09:03:46;13.23;;;5.95;;
71104;SDS011;58760;48.716;8.962;2023-02-28T09:06:14;11.68;;;6.00;;
71104;SDS011;58760;48.716;8.962;2023-02-28T09:08:40;13.68;;;6.30;;
71104;SDS011;58760;48.716;8.962;2023-02-28T09:11:06;11.20;;;5.80;;
71104;SDS011;58760;48.716;8.962;2023-02-28T09:13:32;12.25;;;5.35;;
71104;SDS011;58760;48.716;8.962;2023-02-28T09:15:59;12.05;;;5.85;;
71104;SDS011;58760;48.716;8.962;2023-02-28T09:18:26;13.00;;;6.25;;
71104;SDS011;58760;48.716;8.962;2023-02-28T09:20:52;10.68;;;5.88;;
71104;SDS011;58760;48.716;8.962;2023-02-28T09:23:18;11.35;;;5.93;;
71104;SDS011;58760;48.716;8.962;2023-02-28T09:25:47;11.68;;;5.60;;
71104;SDS011;58760;48.716;8.962;2023-02-28T09:28:17;11.13;;;5.40;;
71104;SDS011;58760;48.716;8.962;2023-02-28T09:30:47;11.90;;;5.82;;
71104;SDS011;58760;48.716;8.962;2023-02-28T09:33:15;11.02;;;5.70;;
71104;SDS011;58760;48.716;8.962;2023-02-28T09:35:41;11.07;;;5.72;;
71104;SDS011;58760;48.716;8.962;2023-02-28T09:38:08;11.35;;;5.32;;
71104;SDS011;58760;48.716;8.962;2023-02-28T09:40:38;11.98;;;6.60;;
71104;SDS011;58760;48.716;8.962;2023-02-28T09:43:17;11.15;;;6.30;;
71104;SDS011;58760;48.716;8.962;2023-02-28T09:49:07;11.18;;;5.43;;
71104;SDS011;58760;48.716;8.962;2023-02-28T09:54:11;13.63;;;6.18;;
71104;SDS011;58760;48.716;8.962;2023-02-28T09:56:44;12.68;;;6.65;;
71104;SDS011;58760;48.716;8.962;2023-02-28T10:05:19;11.48;;;5.97;;
71104;SDS011;58760;48.716;8.962;2023-02-28T10:08:07;11.65;;;6.22;;
71104;SDS011;58760;48.716;8.962;2023-02-28T10:10:40;13.07;;;6.07;;
71104;SDS011;58760;48.716;8.962;2023-02-28T10:15:47;15.27;;;6.25;;
71104;SDS011;58760;48.716;8.962;2023-02-28T10:18:20;11.15;;;6.63;;
71104;SDS011;58760;48.716;8.962;2023-02-28T10:20:49;12.00;;;6.15;;
71104;SDS011;58760;48.716;8.962;2023-02-28T10:23:17;11.80;;;6.53;;
71104;SDS011;58760;48.716;8.962;2023-02-28T10:25:57;12.75;;;5.82;;
71104;SDS011;58760;48.716;8.962;2023-02-28T10:28:24;12.38;;;6.28;;
71104;SDS011;58760;48.716;8.962;2023-02-28T10:30:52;13.35;;;6.53;;
71104;SDS011;58760;48.716;8.962;2023-02-28T10:35:46;11.85;;;6.10;;
71104;SDS011;58760;48.716;8.962;2023-02-28T10:38:15;11.98;;;5.70;;
71104;SDS011;58760;48.716;8.962;2023-02-28T10:40:43;11.85;;;5.82;;
71104;SDS011;58760;48.716;8.962;2023-02-28T10:45:52;12.90;;;6.53;;
71104;SDS011;58760;48.716;8.962;2023-02-28T10:58:40;12.38;;;5.45;;
71104;SDS011;58760;48.716;8.962;2023-02-28T11:01:35;12.90;;;6.63;;
71104;SDS011;58760;48.716;8.962;2023-02-28T11:04:03;10.18;;;6.03;;
71104;SDS011;58760;48.716;8.962;2023-02-28T11:06:43;12.40;;;6.45;;
71104;SDS011;58760;48.716;8.962;2023-02-28T11:09:25;10.43;;;6.05;;
71104;SDS011;58760;48.716;8.962;2023-02-28T11:11:56;14.18;;;6.97;;
71104;SDS011;58760;48.716;8.962;2023-02-28T11:14:24;13.13;;;6.30;;
71104;SDS011;58760;48.716;8.962;2023-02-28T11:16:52;11.48;;;6.22;;
71104;SDS011;58760;48.716;8.962;2023-02-28T11:19:22;11.98;;;6.20;;
71104;SDS011;58760;48.716;8.962;2023-02-28T11:21:55;12.45;;;6.22;;
71104;SDS011;58760;48.716;8.962;2023-02-28T11:24:37;11.55;;;5.95;;
71104;SDS011;58760;48.716;8.962;2023-02-28T11:27:24;12.30;;;6.03;;
71104;SDS011;58760;48.716;8.962;2023-02-28T11:29:56;13.80;;;6.63;;
71104;SDS011;58760;48.716;8.962;2023-02-28T11:32:22;11.45;;;6.25;;
71104;SDS011;58760;48.716;8.962;2023-02-28T11:35:04;11.32;;;6.47;;
71104;SDS011;58760;48.716;8.962;2023-02-28T11:37:41;11.48;;;6.50;;
71104;SDS011;58760;48.716;8.962;2023-02-28T11:40:17;11.70;;;6.55;;
71104;SDS011;58760;48.716;8.962;2023-02-28T11:56:10;17.70;;;8.45;;
71104;SDS011;58760;48.716;8.962;2023-02-28T12:01:21;12.93;;;6.18;;
71104;SDS011;58760;48.716;8.962;2023-02-28T12:04:14;11.43;;;6.07;;
71104;SDS011;58760;48.716;8.962;2023-02-28T12:06:52;10.27;;;5.80;;
71104;SDS011;58760;48.716;8.962;2023-02-28T12:15:05;9.00;;;4.97;;
71104;SDS011;58760;48.716;8.962;2023-02-28T12:17:55;9.70;;;5.45;;
71104;SDS011;58760;48.716;8.962;2023-02-28T12:26:31;10.00;;;5.30;;
71104;SDS011;58760;48.716;8.962;2023-02-28T12:31:50;8.70;;;5.30;;
71104;SDS011;58760;48.716;8.962;2023-02-28T12:34:21;10.50;;;5.13;;
71104;SDS011;58760;48.716;8.962;2023-02-28T12:36:51;9.88;;;5.07;;
71104;SDS011;58760;48.716;8.962;2023-02-28T12:39:26;10.00;;;4.97;;
71104;SDS011;58760;48.716;8.962;2023-02-28T12:41:59;12.00;;;5.07;;
71104;SDS011;58760;48.716;8.962;2023-02-28T12:44:31;10.52;;;4.88;;
71104;SDS011;58760;48.716;8.962;2023-02-28T12:47:04;13.15;;;5.63;;
71104;SDS011;58760;48.716;8.962;2023-02-28T12:49:36;8.55;;;5.22;;
71104;SDS011;58760;48.716;8.962;2023-02-28T13:00:12;10.70;;;5.70;;
71104;SDS011;58760;48.716;8.962;2023-02-28T13:07:56;13.40;;;6.03;;
71104;SDS011;58760;48.716;8.962;2023-02-28T13:13:16;8.63;;;4.72;;
71104;SDS011;58760;48.716;8.962;2023-02-28T13:16:01;8.57;;;4.95;;
71104;SDS011;58760;48.716;8.962;2023-02-28T13:21:02;7.88;;;4.45;;
71104;SDS011;58760;48.716;8.962;2023-02-28T13:28:57;8.88;;;4.72;;
71104;SDS011;58760;48.716;8.962;2023-02-28T13:31:23;7.80;;;4.35;;
71104;SDS011;58760;48.716;8.962;2023-02-28T13:41:48;8.95;;;5.07;;
71104;SDS011;58760;48.716;8.962;2023-02-28T13:44:20;11.23;;;4.47;;
71104;SDS011;58760;48.716;8.962;2023-02-28T13:54:50;10.50;;;4.97;;
71104;SDS011;58760;48.716;8.962;2023-02-28T13:57:52;8.52;;;4.60;;
71104;SDS011;58760;48.716;8.962;2023-02-28T14:00:39;8.00;;;4.47;;
71104;SDS011;58760;48.716;8.962;2023-02-28T14:05:36;11.10;;;5.38;;
71104;SDS011;58760;48.716;8.962;2023-02-28T14:08:06;10.98;;;5.20;;
71104;SDS011;58760;48.716;8.962;2023-02-28T14:10:42;8.15;;;4.82;;
71104;SDS011;58760;48.716;8.962;2023-02-28T14:16:00;9.73;;;4.95;;
71104;SDS011;58760;48.716;8.962;2023-02-28T14:18:37;8.25;;;5.10;;
71104;SDS011;58760;48.716;8.962;2023-02-28T14:21:26;8.70;;;4.82;;
71104;SDS011;58760;48.716;8.962;2023-02-28T14:24:03;9.73;;;4.70;;
71104;SDS011;58760;48.716;8.962;2023-02-28T14:29:35;8.45;;;4.95;;
71104;SDS011;58760;48.716;8.962;2023-02-28T14:34:55;8.57;;;4.43;;
71104;SDS011;58760;48.716;8.962;2023-02-28T14:37:37;10.02;;;5.40;;
71104;SDS011;58760;48.716;8.962;2023-02-28T14:40:11;8.88;;;4.78;;
71104;SDS011;58760;48.716;8.962;2023-02-28T14:42:45;10.18;;;5.32;;
71104;SDS011;58760;48.716;8.962;2023-02-28T14:45:20;9.45;;;5.03;;
71104;SDS011;58760;48.716;8.962;2023-02-28T14:47:46;8.30;;;4.60;;
71104;SDS011;58760;48.716;8.962;2023-02-28T14:50:17;8.52;;;5.10;;
71104;SDS011;58760;48.716;8.962;2023-02-28T14:52:44;9.85;;;5.13;;
71104;SDS011;58760;48.716;8.962;2023-02-28T14:55:12;9.85;;;5.40;;
71104;SDS011;58760;48.716;8.962;2023-02-28T14:57:44;9.38;;;5.60;;
71104;SDS011;58760;48.716;8.962;2023-02-28T15:00:22;8.70;;;5.15;;
71104;SDS011;58760;48.716;8.962;2023-02-28T15:02:50;8.60;;;4.85;;
71104;SDS011;58760;48.716;8.962;2023-02-28T15:05:51;8.70;;;5.03;;
71104;SDS011;58760;48.716;8.962;2023-02-28T15:08:16;9.88;;;5.32;;
71104;SDS011;58760;48.716;8.962;2023-02-28T15:10:42;8.35;;;4.72;;
71104;SDS011;58760;48.716;8.962;2023-02-28T15:13:13;12.25;;;5.85;;
71104;SDS011;58760;48.716;8.962;2023-02-28T15:15:53;11.02;;;4.80;;
71104;SDS011;58760;48.716;8.962;2023-02-28T15:18:30;10.00;;;5.30;;
71104;SDS011;58760;48.716;8.962;2023-02-28T15:21:01;11.20;;;5.32;;
71104;SDS011;58760;48.716;8.962;2023-02-28T15:23:30;10.93;;;6.03;;
71104;SDS011;58760;48.716;8.962;2023-02-28T15:25:56;12.48;;;5.82;;
71104;SDS011;58760;48.716;8.962;2023-02-28T15:28:22;10.07;;;5.45;;
71104;SDS011;58760;48.716;8.962;2023-02-28T15:30:56;11.60;;;5.80;;
71104;SDS011;58760;48.716;8.962;2023-02-28T15:33:29;13.52;;;5.57;;
71104;SDS011;58760;48.716;8.962;2023-02-28T15:36:06;9.98;;;5.20;;
71104;SDS011;58760;48.716;8.962;2023-02-28T15:38:45;11.95;;;5.72;;
71104;SDS011;58760;48.716;8.962;2023-02-28T15:41:21;10.48;;;5.40;;
71104;SDS011;58760;48.716;8.962;2023-02-28T15:46:35;11.63;;;5.30;;
71104;SDS011;58760;48.716;8.962;2023-02-28T15:49:00;10.85;;;5.55;;
71104;SDS011;58760;48.716;8.962;2023-02-28T15:51:30;9.77;;;5.60;;
71104;SDS011;58760;48.716;8.962;2023-02-28T15:53:58;9.50;;;5.13;;
71104;SDS011;58760;48.716;8.962;2023-02-28T15:56:27;9.75;;;5.43;;
71104;SDS011;58760;48.716;8.962;2023-02-28T15:58:59;11.70;;;6.75;;
71104;SDS011;58760;48.716;8.962;2023-02-28T16:01:32;11.95;;;5.68;;
71104;SDS011;58760;48.716;8.962;2023-02-28T16:04:17;11.38;;;5.78;;
71104;SDS011;58760;48.716;8.962;2023-02-28T16:09:25;11.00;;;5.60;;
71104;SDS011;58760;48.716;8.962;2023-02-28T16:11:52;10.63;;;6.25;;
71104;SDS011;58760;48.716;8.962;2023-02-28T16:14:24;11.38;;;5.90;;
71104;SDS011;58760;48.716;8.962;2023-02-28T16:16:54;9.82;;;5.75;;
71104;SDS011;58760;48.716;8.962;2023-02-28T16:19:21;11.05;;;6.13;;
71104;SDS011;58760;48.716;8.962;2023-02-28T16:21:46;13.93;;;6.40;;
71104;SDS011;58760;48.716;8.962;2023-02-28T16:24:12;11.68;;;6.35;;
71104;SDS011;58760;48.716;8.962;2023-02-28T16:26:41;10.10;;;5.82;;
71104;SDS011;58760;48.716;8.962;2023-02-28T16:29:13;11.13;;;5.95;;
71104;SDS011;58760;48.716;8.962;2023-02-28T16:31:42;11.52;;;5.60;;
71104;SDS011;58760;48.716;8.962;2023-02-28T16:34:07;11.80;;;5.75;;
71104;SDS011;58760;48.716;8.962;2023-02-28T16:36:33;11.38;;;6.38;;
71104;SDS011;58760;48.716;8.962;2023-02-28T16:38:58;12.27;;;5.65;;
71104;SDS011;58760;48.716;8.962;2023-02-28T16:41:24;15.57;;;6.35;;
71104;SDS011;58760;48.716;8.962;2023-02-28T16:43:52;12.30;;;6.20;;
71104;SDS011;58760;48.716;8.962;2023-02-28T16:46:23;12.02;;;6.30;;
71104;SDS011;58760;48.716;8.962;2023-02-28T16:48:52;10.70;;;6.03;;
71104;SDS011;58760;48.716;8.962;2023-02-28T16:51:17;12.80;;;6.10;;
71104;SDS011;58760;48.716;8.962;2023-02-28T16:53:43;12.57;;;6.38;;
71104;SDS011;58760;48.716;8.962;2023-02-28T16:58:43;9.80;;;5.63;;
71104;SDS011;58760;48.716;8.962;2023-02-28T17:01:09;11.65;;;6.75;;
71104;SDS011;58760;48.716;8.962;2023-02-28T17:03:34;13.38;;;5.93;;
71104;SDS011;58760;48.716;8.962;2023-02-28T17:06:01;10.55;;;5.93;;
71104;SDS011;58760;48.716;8.962;2023-02-28T17:08:27;13.02;;;6.78;;
71104;SDS011;58760;48.716;8.962;2023-02-28T17:10:54;13.27;;;6.68;;
71104;SDS011;58760;48.716;8.962;2023-02-28T17:13:19;11.88;;;6.55;;
71104;SDS011;58760;48.716;8.962;2023-02-28T17:15:45;13.30;;;6.15;;
71104;SDS011;58760;48.716;8.962;2023-02-28T17:18:13;12.00;;;6.75;;
71104;SDS011;58760;48.716;8.962;2023-02-28T17:20:44;13.60;;;6.40;;
71104;SDS011;58760;48.716;8.962;2023-02-28T17:23:10;13.00;;;7.05;;
71104;SDS011;58760;48.716;8.962;2023-02-28T17:25:35;13.40;;;6.80;;
71104;SDS011;58760;48.716;8.962;2023-02-28T17:28:01;13.70;;;6.63;;
71104;SDS011;58760;48.716;8.962;2023-02-28T17:30:26;15.27;;;7.32;;
71104;SDS011;58760;48.716;8.962;2023-02-28T17:32:55;12.45;;;6.95;;
71104;SDS011;58760;48.716;8.962;2023-02-28T17:35:22;12.73;;;7.22;;
71104;SDS011;58760;48.716;8.962;2023-02-28T17:37:48;11.27;;;6.32;;